createdAt,value
2023-01-27T00:00:50.688Z,-2.02
2023-01-27T00:03:17.426Z,-2.01
2023-01-27T00:05:44.855Z,-2.04
2023-01-27T00:08:11.892Z,-2.06
2023-01-27T00:10:38.921Z,-2.03
2023-01-27T00:13:05.468Z,-1.99
2023-01-27T00:15:33.421Z,-2.01
2023-01-27T00:18:01.901Z,-2.03
2023-01-27T00:20:28.636Z,-2.07
2023-01-27T00:22:55.019Z,-2.06
2023-01-27T00:25:21.609Z,-2.02
2023-01-27T00:27:48.055Z,-2.03
2023-01-27T00:30:14.766Z,-2.03
2023-01-27T00:32:41.290Z,-2.04
2023-01-27T00:35:08.078Z,-2.03
2023-01-27T00:37:34.917Z,-2.02
2023-01-27T00:40:01.445Z,-2.00
2023-01-27T00:42:28.212Z,-2.00
2023-01-27T00:44:54.567Z,-2.00
2023-01-27T00:47:21.082Z,-1.98
2023-01-27T00:49:47.450Z,-2.04
2023-01-27T00:52:14.157Z,-2.00
2023-01-27T00:54:40.622Z,-1.99
2023-01-27T00:57:07.057Z,-1.98
2023-01-27T00:59:33.517Z,-2.06
2023-01-27T01:01:59.998Z,-2.04
2023-01-27T01:04:26.456Z,-2.06
2023-01-27T01:06:52.947Z,-2.05
2023-01-27T01:09:19.560Z,-2.05
2023-01-27T01:11:46.058Z,-2.03
2023-01-27T01:14:12.773Z,-2.03
2023-01-27T01:16:39.289Z,-2.02
2023-01-27T01:19:05.793Z,-2.07
2023-01-27T01:21:32.092Z,-2.06
2023-01-27T01:23:58.556Z,-2.06
2023-01-27T01:26:25.126Z,-2.02
2023-01-27T01:28:51.463Z,-2.02
2023-01-27T01:31:20.051Z,-2.02
2023-01-27T01:33:47.866Z,-2.00
2023-01-27T01:36:17.445Z,-2.03
2023-01-27T01:38:43.872Z,-2.05
2023-01-27T01:41:15.083Z,-2.09
2023-01-27T01:43:42.262Z,-2.11
2023-01-27T01:46:12.091Z,-2.09
2023-01-27T01:48:46.561Z,-2.11
2023-01-27T01:51:17.655Z,-2.10
2023-01-27T01:53:47.698Z,-2.15
2023-01-27T01:56:24.057Z,-2.17
2023-01-27T01:58:51.354Z,-2.16
2023-01-27T02:01:18.444Z,-2.14
2023-01-27T02:03:49.933Z,-2.18
2023-01-27T02:06:17.348Z,-2.16
2023-01-27T02:08:46.308Z,-2.15
2023-01-27T02:11:12.850Z,-2.17
2023-01-27T02:13:40.270Z,-2.14
2023-01-27T02:16:08.339Z,-2.17
2023-01-27T02:18:35.235Z,-2.20
2023-01-27T02:21:01.909Z,-2.17
2023-01-27T02:23:46.963Z,-2.17
2023-01-27T02:26:43.559Z,-2.17
2023-01-27T02:29:13.547Z,-2.17
2023-01-27T02:31:40.394Z,-2.14
2023-01-27T02:34:13.643Z,-2.13
2023-01-27T02:36:53.140Z,-2.08
2023-01-27T02:39:24.134Z,-2.12
2023-01-27T02:41:54.231Z,-2.11
2023-01-27T02:44:22.020Z,-2.11
2023-01-27T02:46:48.712Z,-2.12
2023-01-27T02:49:15.289Z,-2.11
2023-01-27T02:51:41.791Z,-2.11
2023-01-27T02:54:09.002Z,-2.13
2023-01-27T02:56:35.716Z,-2.15
2023-01-27T02:59:02.171Z,-2.11
2023-01-27T03:01:28.748Z,-2.13
2023-01-27T03:03:56.147Z,-2.13
2023-01-27T03:06:22.995Z,-2.16
2023-01-27T03:08:49.688Z,-2.14
2023-01-27T03:11:16.881Z,-2.15
2023-01-27T03:13:43.368Z,-2.13
2023-01-27T03:16:13.550Z,-2.13
2023-01-27T03:18:41.102Z,-2.08
2023-01-27T03:21:08.047Z,-2.11
2023-01-27T03:23:36.852Z,-2.07
2023-01-27T03:26:06.731Z,-2.05
2023-01-27T03:28:33.767Z,-2.05
2023-01-27T03:31:02.571Z,-2.08
2023-01-27T03:33:29.282Z,-2.16
2023-01-27T03:35:56.504Z,-2.16
2023-01-27T03:38:23.082Z,-2.12
2023-01-27T03:40:49.928Z,-2.18
2023-01-27T03:43:16.305Z,-2.14
2023-01-27T03:45:48.167Z,-2.13
2023-01-27T03:48:14.790Z,-2.17
2023-01-27T03:50:41.462Z,-2.19
2023-01-27T03:53:07.828Z,-2.19
2023-01-27T03:55:36.257Z,-2.18
2023-01-27T03:58:03.702Z,-2.17
2023-01-27T04:00:33.337Z,-2.13
2023-01-27T04:02:59.808Z,-2.13
2023-01-27T04:05:26.275Z,-2.14
2023-01-27T04:07:52.617Z,-2.11
2023-01-27T04:10:19.182Z,-2.14
2023-01-27T04:12:48.369Z,-2.14
2023-01-27T04:15:15.138Z,-2.12
2023-01-27T04:17:41.807Z,-2.12
2023-01-27T04:20:09.033Z,-2.09
2023-01-27T04:22:36.795Z,-2.07
2023-01-27T04:25:03.494Z,-2.04
2023-01-27T04:27:29.891Z,-2.12
2023-01-27T04:29:57.599Z,-2.08
2023-01-27T04:32:23.963Z,-2.08
2023-01-27T04:34:50.332Z,-2.05
2023-01-27T04:37:17.144Z,-2.01
2023-01-27T04:39:43.608Z,-2.04
2023-01-27T04:42:10.083Z,-2.05
2023-01-27T04:44:36.665Z,-2.09
2023-01-27T04:47:03.281Z,-2.08
2023-01-27T04:49:29.681Z,-2.05
2023-01-27T04:51:56.034Z,-2.05
2023-01-27T04:54:22.727Z,-2.07
2023-01-27T04:57:00.424Z,-2.05
2023-01-27T04:59:27.676Z,-2.03
2023-01-27T05:01:54.468Z,-1.99
2023-01-27T05:04:21.111Z,-2.01
2023-01-27T05:06:47.515Z,-1.99
2023-01-27T05:09:14.040Z,-1.98
2023-01-27T05:11:40.538Z,-2.02
2023-01-27T05:14:06.952Z,-1.99
2023-01-27T05:16:33.728Z,-1.99
2023-01-27T05:19:00.379Z,-1.99
2023-01-27T05:21:27.057Z,-2.00
2023-01-27T05:23:54.013Z,-2.05
2023-01-27T05:26:24.644Z,-2.04
2023-01-27T05:28:52.751Z,-2.01
2023-01-27T05:31:29.996Z,-1.96
2023-01-27T05:33:59.974Z,-1.95
2023-01-27T05:36:27.091Z,-1.96
2023-01-27T05:38:55.123Z,-1.96
2023-01-27T05:41:22.035Z,-1.95
2023-01-27T05:43:53.601Z,-2.00
2023-01-27T05:46:25.862Z,-2.00
2023-01-27T05:48:55.914Z,-1.96
2023-01-27T05:51:24.870Z,-1.98
2023-01-27T05:53:51.366Z,-1.94
2023-01-27T05:56:19.367Z,-1.92
2023-01-27T05:58:45.906Z,-1.90
2023-01-27T06:01:16.056Z,-1.92
2023-01-27T06:03:43.312Z,-1.91
2023-01-27T06:06:11.146Z,-1.87
2023-01-27T06:08:38.389Z,-1.86
2023-01-27T06:11:05.193Z,-1.84
2023-01-27T06:13:32.973Z,-1.84
2023-01-27T06:15:59.404Z,-1.86
2023-01-27T06:18:25.866Z,-1.86
2023-01-27T06:20:52.237Z,-1.81
2023-01-27T06:23:18.874Z,-1.81
2023-01-27T06:25:47.696Z,-1.83
2023-01-27T06:28:28.154Z,-1.84
2023-01-27T06:30:55.127Z,-1.85
2023-01-27T06:33:21.548Z,-1.80
2023-01-27T06:35:48.022Z,-1.84
2023-01-27T06:38:14.749Z,-1.81
2023-01-27T06:40:41.808Z,-1.84
2023-01-27T06:43:14.529Z,-1.82
2023-01-27T06:45:41.346Z,-1.78
2023-01-27T06:48:08.519Z,-1.82
2023-01-27T06:50:35.669Z,-1.77
2023-01-27T06:53:04.987Z,-1.76
2023-01-27T06:55:31.811Z,-1.78
2023-01-27T06:57:59.358Z,-1.82
2023-01-27T07:00:25.825Z,-1.81
2023-01-27T07:02:55.713Z,-1.81
2023-01-27T07:05:22.215Z,-1.78
2023-01-27T07:07:48.570Z,-1.76
2023-01-27T07:10:15.675Z,-1.73
2023-01-27T07:12:42.686Z,-1.78
2023-01-27T07:15:10.698Z,-1.74
2023-01-27T07:17:37.449Z,-1.75
2023-01-27T07:20:05.926Z,-1.74
2023-01-27T07:22:32.677Z,-1.76
2023-01-27T07:24:59.175Z,-1.77
2023-01-27T07:27:25.966Z,-1.75
2023-01-27T07:29:52.425Z,-1.73
2023-01-27T07:32:19.038Z,-1.71
2023-01-27T07:34:45.527Z,-1.68
2023-01-27T07:37:13.120Z,-1.68
2023-01-27T07:39:39.714Z,-1.66
2023-01-27T07:42:07.473Z,-1.64
2023-01-27T07:44:33.984Z,-1.62
2023-01-27T07:47:00.448Z,-1.63
2023-01-27T07:49:27.660Z,-1.58
2023-01-27T07:51:54.492Z,-1.60
2023-01-27T07:54:20.984Z,-1.59
2023-01-27T07:56:47.485Z,-1.58
2023-01-27T07:59:13.966Z,-1.60
2023-01-27T08:01:40.615Z,-1.53
2023-01-27T08:04:07.081Z,-1.52
2023-01-27T08:06:33.476Z,-1.60
2023-01-27T08:08:59.914Z,-1.57
2023-01-27T08:11:26.381Z,-1.62
2023-01-27T08:13:53.279Z,-1.54
2023-01-27T08:16:19.775Z,-1.53
2023-01-27T08:18:46.482Z,-1.49
2023-01-27T08:21:13.109Z,-1.47
2023-01-27T08:23:39.896Z,-1.42
2023-01-27T08:26:08.417Z,-1.40
2023-01-27T08:28:36.688Z,-1.45
2023-01-27T08:31:04.696Z,-1.43
2023-01-27T08:33:31.487Z,-1.44
2023-01-27T08:36:03.298Z,-1.41
2023-01-27T08:38:30.054Z,-1.50
2023-01-27T08:40:56.452Z,-1.47
2023-01-27T08:43:24.509Z,-1.45
2023-01-27T08:45:52.470Z,-1.50
2023-01-27T08:48:18.878Z,-1.43
2023-01-27T08:50:45.243Z,-1.41
2023-01-27T08:53:11.710Z,-1.41
2023-01-27T08:55:38.131Z,-1.40
2023-01-27T08:58:04.724Z,-1.40
2023-01-27T09:00:31.138Z,-1.47
2023-01-27T09:02:57.569Z,-1.47
2023-01-27T09:05:23.980Z,-1.46
2023-01-27T09:07:50.477Z,-1.45
2023-01-27T09:10:17.444Z,-1.51
2023-01-27T09:12:44.684Z,-1.45
2023-01-27T09:15:12.935Z,-1.44
2023-01-27T09:17:41.933Z,-1.48
2023-01-27T09:20:11.041Z,-1.47
2023-01-27T09:22:41.195Z,-1.47
2023-01-27T09:25:11.976Z,-1.41
2023-01-27T09:27:40.485Z,-1.38
2023-01-27T09:30:08.504Z,-1.44
2023-01-27T09:32:35.126Z,-1.44
2023-01-27T09:37:59.907Z,-1.49
2023-01-27T09:40:44.753Z,-1.36
2023-01-27T09:43:29.590Z,-1.32
2023-01-27T09:46:17.945Z,-1.21
2023-01-27T09:52:06.195Z,-1.28
2023-01-27T09:55:06.792Z,-1.19
2023-01-27T09:58:09.026Z,-1.04
2023-01-27T10:03:22.915Z,-1.05
2023-01-27T10:06:03.718Z,-1.01
2023-01-27T10:08:49.574Z,-0.88
2023-01-27T10:11:46.801Z,-0.84
2023-01-27T10:14:23.570Z,-0.85
2023-01-27T10:17:23.171Z,-0.76
2023-01-27T10:20:35.102Z,-0.77
2023-01-27T10:23:33.877Z,-0.76
2023-01-27T10:26:41.295Z,-0.89
2023-01-27T10:29:26.255Z,-0.87
2023-01-27T10:31:57.267Z,-0.66
2023-01-27T10:34:30.906Z,-0.82
2023-01-27T10:37:00.632Z,-0.79
2023-01-27T10:40:03.751Z,-0.78
2023-01-27T10:42:44.214Z,-0.70
2023-01-27T10:45:13.032Z,-0.72
2023-01-27T10:47:55.176Z,-0.66
2023-01-27T10:50:28.403Z,-0.52
2023-01-27T10:53:16.920Z,-0.53
2023-01-27T10:58:47.189Z,-0.50
2023-01-27T11:04:24.499Z,-0.50
2023-01-27T11:07:19.025Z,-0.50
2023-01-27T11:09:57.474Z,-0.44
2023-01-27T11:15:27.109Z,-0.45
2023-01-27T11:21:16.237Z,-0.68
2023-01-27T11:23:48.822Z,-0.49
2023-01-27T11:26:48.309Z,-0.22
2023-01-27T11:29:54.582Z,0.03
2023-01-27T11:32:54.700Z,-0.11
2023-01-27T11:35:22.649Z,-0.14
2023-01-27T11:37:52.724Z,-0.26
2023-01-27T11:40:36.060Z,-0.21
2023-01-27T11:43:03.582Z,-0.19
2023-01-27T11:45:36.588Z,-0.11
2023-01-27T11:48:07.857Z,-0.34
2023-01-27T11:50:36.008Z,-0.30
2023-01-27T11:53:25.584Z,-0.36
2023-01-27T11:55:58.436Z,-0.30
2023-01-27T11:58:30.616Z,-0.29
2023-01-27T12:01:01.433Z,-0.21
2023-01-27T12:03:42.804Z,0.03
2023-01-27T12:06:16.623Z,0.08
2023-01-27T12:08:45.997Z,0.09
2023-01-27T12:11:30.091Z,-0.13
2023-01-27T12:14:04.739Z,-0.11
2023-01-27T12:16:48.357Z,-0.17
2023-01-27T12:19:28.721Z,-0.18
2023-01-27T12:22:02.066Z,-0.15
2023-01-27T12:24:34.229Z,-0.14
2023-01-27T12:27:02.879Z,-0.28
2023-01-27T12:29:53.943Z,-0.13
2023-01-27T12:32:32.126Z,-0.06
2023-01-27T12:34:58.593Z,-0.02
2023-01-27T12:37:34.609Z,-0.01
2023-01-27T12:40:04.537Z,0.08
2023-01-27T12:42:44.571Z,0.19
2023-01-27T12:45:31.020Z,0.03
2023-01-27T12:47:58.828Z,0.13
2023-01-27T12:50:33.636Z,0.10
2023-01-27T12:55:51.030Z,-0.05
2023-01-27T12:58:26.391Z,-0.04
2023-01-27T13:00:53.042Z,0.01
2023-01-27T13:03:22.240Z,0.27
2023-01-27T13:05:52.304Z,0.25
2023-01-27T13:11:02.911Z,0.29
2023-01-27T13:16:52.925Z,-0.01
2023-01-27T13:19:32.929Z,0.03
2023-01-27T13:22:00.117Z,-0.10
2023-01-27T13:24:42.423Z,-0.14
2023-01-27T13:27:17.176Z,-0.12
2023-01-27T13:29:56.613Z,-0.11
2023-01-27T13:32:27.875Z,-0.08
2023-01-27T13:35:13.398Z,-0.05
2023-01-27T13:37:48.904Z,-0.11
2023-01-27T13:40:27.302Z,-0.26
2023-01-27T13:43:12.401Z,-0.22
2023-01-27T13:45:43.087Z,-0.26
2023-01-27T13:48:29.499Z,-0.27
2023-01-27T13:51:19.981Z,-0.15
2023-01-27T13:53:49.276Z,-0.12
2023-01-27T13:56:40.603Z,-0.19
2023-01-27T13:59:32.068Z,-0.21
2023-01-27T14:02:16.953Z,-0.21
2023-01-27T14:05:11.828Z,-0.21
2023-01-27T14:07:40.787Z,-0.35
2023-01-27T14:10:24.461Z,-0.52
2023-01-27T14:12:51.678Z,-0.55
2023-01-27T14:15:46.979Z,-0.66
2023-01-27T14:18:21.733Z,-0.60
2023-01-27T14:21:00.571Z,-0.60
2023-01-27T14:26:28.301Z,-0.57
2023-01-27T14:29:06.186Z,-0.57
2023-01-27T14:32:12.462Z,-0.54
2023-01-27T14:34:47.834Z,-0.58
2023-01-27T14:37:40.080Z,-0.55
2023-01-27T14:40:29.197Z,-0.63
2023-01-27T14:42:55.848Z,-0.58
2023-01-27T14:45:28.741Z,-0.55
2023-01-27T14:48:09.859Z,-0.53
2023-01-27T14:50:54.611Z,-0.50
2023-01-27T14:56:30.222Z,-0.59
2023-01-27T14:59:25.489Z,-0.57
2023-01-27T15:02:01.047Z,-0.59
2023-01-27T15:05:09.702Z,-0.66
2023-01-27T15:08:00.873Z,-0.66
2023-01-27T15:10:56.171Z,-0.68
2023-01-27T15:13:48.065Z,-0.67
2023-01-27T15:16:17.494Z,-0.65
2023-01-27T15:19:15.070Z,-0.62
2023-01-27T15:21:58.662Z,-0.65
2023-01-27T15:24:56.193Z,-0.65
2023-01-27T15:32:46.412Z,-0.61
2023-01-27T15:35:25.077Z,-0.61
2023-01-27T15:38:22.692Z,-0.57
2023-01-27T15:41:07.858Z,-0.56
2023-01-27T15:43:39.111Z,-0.54
2023-01-27T15:46:25.631Z,-0.53
2023-01-27T15:48:53.157Z,-0.55
2023-01-27T15:51:21.875Z,-0.58
2023-01-27T15:53:57.125Z,-0.59
2023-01-27T15:56:55.737Z,-0.58
2023-01-27T15:59:35.029Z,-0.58
2023-01-27T16:02:23.785Z,-0.64
2023-01-27T16:05:27.091Z,-0.63
2023-01-27T16:07:58.385Z,-0.58
2023-01-27T16:10:31.526Z,-0.61
2023-01-27T16:13:13.301Z,-0.60
2023-01-27T16:15:40.576Z,-0.60
2023-01-27T16:18:06.868Z,-0.61
2023-01-27T16:20:53.170Z,-0.63
2023-01-27T16:23:38.880Z,-0.65
2023-01-27T16:26:34.585Z,-0.69
2023-01-27T16:29:35.397Z,-0.70
2023-01-27T16:32:14.640Z,-0.75
2023-01-27T16:37:29.276Z,-0.74
2023-01-27T16:40:15.761Z,-0.75
2023-01-27T16:42:59.172Z,-0.74
2023-01-27T16:45:29.556Z,-0.73
2023-01-27T16:48:14.328Z,-0.72
2023-01-27T16:50:48.144Z,-0.72
2023-01-27T16:53:42.787Z,-0.69
2023-01-27T17:02:03.612Z,-0.69
2023-01-27T17:04:32.337Z,-0.67
2023-01-27T17:07:21.940Z,-0.68
2023-01-27T17:09:55.553Z,-0.65
2023-01-27T17:12:42.647Z,-0.63
2023-01-27T17:15:24.707Z,-0.64
2023-01-27T17:17:51.644Z,-0.78
2023-01-27T17:20:26.404Z,-0.79
2023-01-27T17:23:44.821Z,-0.76
2023-01-27T17:26:16.739Z,-0.75
2023-01-27T17:28:46.934Z,-0.77
2023-01-27T17:31:21.121Z,-0.79
2023-01-27T17:33:49.998Z,-0.79
2023-01-27T17:36:16.862Z,-0.81
2023-01-27T17:38:47.787Z,-0.79
2023-01-27T17:41:23.092Z,-0.74
2023-01-27T17:43:49.886Z,-0.75
2023-01-27T17:46:20.657Z,-0.75
2023-01-27T17:49:06.755Z,-0.79
2023-01-27T17:51:38.734Z,-0.81
2023-01-27T17:54:19.256Z,-0.79
2023-01-27T17:56:46.693Z,-0.76
2023-01-27T17:59:21.612Z,-0.75
2023-01-27T18:01:53.291Z,-0.80
2023-01-27T18:04:21.880Z,-0.80
2023-01-27T18:06:50.999Z,-0.81
2023-01-27T18:09:25.830Z,-0.81
2023-01-27T18:12:01.645Z,-0.81
2023-01-27T18:14:34.159Z,-0.80
2023-01-27T18:17:08.468Z,-0.78
2023-01-27T18:19:35.120Z,-0.78
2023-01-27T18:22:16.607Z,-0.78
2023-01-27T18:25:01.718Z,-0.80
2023-01-27T18:27:33.381Z,-0.78
2023-01-27T18:30:08.569Z,-0.77
2023-01-27T18:32:39.327Z,-0.78
2023-01-27T18:35:29.997Z,-0.76
2023-01-27T18:38:20.307Z,-0.75
2023-01-27T18:40:48.224Z,-0.76
2023-01-27T18:43:18.629Z,-0.75
2023-01-27T18:45:45.675Z,-0.75
2023-01-27T18:48:14.522Z,-0.75
2023-01-27T18:50:43.676Z,-0.75
2023-01-27T18:53:19.821Z,-0.75
2023-01-27T18:55:47.313Z,-0.75
2023-01-27T18:58:13.775Z,-0.78
2023-01-27T19:00:45.783Z,-0.78
2023-01-27T19:03:19.024Z,-0.75
2023-01-27T19:05:46.648Z,-0.78
2023-01-27T19:08:20.924Z,-0.79
2023-01-27T19:10:48.710Z,-0.77
2023-01-27T19:13:21.917Z,-0.77
2023-01-27T19:15:51.446Z,-0.76
2023-01-27T19:18:29.004Z,-0.76
2023-01-27T19:20:55.479Z,-0.74
2023-01-27T19:23:22.099Z,-0.75
2023-01-27T19:25:52.498Z,-0.77
2023-01-27T19:28:35.343Z,-0.76
2023-01-27T19:31:02.545Z,-0.75
2023-01-27T19:33:30.493Z,-0.71
2023-01-27T19:36:00.619Z,-0.73
2023-01-27T19:38:29.792Z,-0.77
2023-01-27T19:40:56.929Z,-0.76
2023-01-27T19:43:23.598Z,-0.77
2023-01-27T19:45:51.700Z,-0.78
2023-01-27T19:48:20.750Z,-0.76
2023-01-27T19:50:49.124Z,-0.75
2023-01-27T19:53:17.675Z,-0.72
2023-01-27T19:55:46.496Z,-0.72
2023-01-27T19:58:25.256Z,-0.72
2023-01-27T20:00:56.115Z,-0.72
2023-01-27T20:03:24.160Z,-0.70
2023-01-27T20:05:50.684Z,-0.67
2023-01-27T20:08:21.367Z,-0.66
2023-01-27T20:10:47.974Z,-0.71
2023-01-27T20:13:16.732Z,-0.70
2023-01-27T20:15:43.660Z,-0.72
2023-01-27T20:18:14.897Z,-0.73
2023-01-27T20:20:41.906Z,-0.73
2023-01-27T20:23:09.285Z,-0.70
2023-01-27T20:25:35.622Z,-0.68
2023-01-27T20:28:02.435Z,-0.71
2023-01-27T20:30:32.458Z,-0.70
2023-01-27T20:33:00.627Z,-0.68
2023-01-27T20:35:27.462Z,-0.73
2023-01-27T20:37:54.531Z,-0.68
2023-01-27T20:40:23.631Z,-0.73
2023-01-27T20:42:51.149Z,-0.73
2023-01-27T20:45:18.849Z,-0.75
2023-01-27T20:47:50.253Z,-0.72
2023-01-27T20:50:17.220Z,-0.71
2023-01-27T20:52:43.939Z,-0.73
2023-01-27T20:55:13.731Z,-0.75
2023-01-27T20:57:40.841Z,-0.72
2023-01-27T21:00:08.768Z,-0.72
2023-01-27T21:02:35.391Z,-0.69
2023-01-27T21:05:01.912Z,-0.68
2023-01-27T21:07:28.384Z,-0.72
2023-01-27T21:09:54.758Z,-0.71
2023-01-27T21:12:21.692Z,-0.72
2023-01-27T21:14:48.463Z,-0.71
2023-01-27T21:17:14.913Z,-0.71
2023-01-27T21:19:41.511Z,-0.68
2023-01-27T21:22:08.173Z,-0.68
2023-01-27T21:24:34.587Z,-0.70
2023-01-27T21:27:01.611Z,-0.69
2023-01-27T21:29:28.138Z,-0.70
2023-01-27T21:31:54.618Z,-0.72
2023-01-27T21:34:21.221Z,-0.71
2023-01-27T21:36:47.663Z,-0.72
2023-01-27T21:39:14.012Z,-0.74
2023-01-27T21:41:40.426Z,-0.70
2023-01-27T21:44:15.750Z,-0.71
2023-01-27T21:46:42.222Z,-0.70
2023-01-27T21:49:08.640Z,-0.66
2023-01-27T21:51:35.226Z,-0.64
2023-01-27T21:54:01.835Z,-0.63
2023-01-27T21:56:28.169Z,-0.63
2023-01-27T21:58:54.529Z,-0.62
2023-01-27T22:01:20.888Z,-0.63
2023-01-27T22:03:47.319Z,-0.64
2023-01-27T22:06:13.729Z,-0.62
2023-01-27T22:08:40.107Z,-0.64
2023-01-27T22:11:12.416Z,-0.62
2023-01-27T22:13:39.023Z,-0.63
2023-01-27T22:16:06.056Z,-0.64
2023-01-27T22:18:32.536Z,-0.63
2023-01-27T22:21:02.301Z,-0.63
2023-01-27T22:23:28.730Z,-0.64
2023-01-27T22:25:55.385Z,-0.67
2023-01-27T22:28:22.015Z,-0.66
2023-01-27T22:30:49.040Z,-0.65
2023-01-27T22:33:15.580Z,-0.63
2023-01-27T22:35:43.733Z,-0.63
2023-01-27T22:38:10.514Z,-0.62
2023-01-27T22:40:37.256Z,-0.63
2023-01-27T22:43:03.768Z,-0.62
2023-01-27T22:45:30.179Z,-0.59
2023-01-27T22:47:56.581Z,-0.58
2023-01-27T22:50:23.001Z,-0.59
2023-01-27T22:52:49.621Z,-0.59
2023-01-27T22:55:16.636Z,-0.62
2023-01-27T22:57:44.959Z,-0.65
2023-01-27T23:00:11.800Z,-0.65
2023-01-27T23:02:38.294Z,-0.63
2023-01-27T23:05:04.947Z,-0.61
2023-01-27T23:07:31.271Z,-0.61
2023-01-27T23:09:57.788Z,-0.52
2023-01-27T23:12:24.225Z,-0.45
2023-01-27T23:14:50.587Z,-0.56
2023-01-27T23:17:17.059Z,-0.60
2023-01-27T23:19:43.382Z,-0.62
2023-01-27T23:22:10.117Z,-0.63
2023-01-27T23:24:36.728Z,-0.64
2023-01-27T23:27:03.221Z,-0.62
2023-01-27T23:29:33.008Z,-0.63
2023-01-27T23:31:59.528Z,-0.62
2023-01-27T23:34:26.008Z,-0.68
2023-01-27T23:36:52.349Z,-0.66
2023-01-27T23:39:18.708Z,-0.65
2023-01-27T23:41:45.144Z,-0.67
2023-01-27T23:44:12.877Z,-0.63
2023-01-27T23:46:39.703Z,-0.62
2023-01-27T23:49:06.194Z,-0.59
2023-01-27T23:51:32.818Z,-0.60
2023-01-27T23:53:59.204Z,-0.59
2023-01-27T23:56:25.568Z,-0.58
2023-01-27T23:58:52.177Z,-0.55
